sensor_id;sensor_type;location;lat;lon;timestamp;P1;durP1;ratioP1;P2;durP2;ratioP2
74995;SDS011;63545;51.690;5.202;2023-06-10T00:02:15;9.50;;;7.17;;
74995;SDS011;63545;51.690;5.202;2023-06-10T00:04:42;9.85;;;7.25;;
74995;SDS011;63545;51.690;5.202;2023-06-10T00:07:07;8.30;;;7.13;;
74995;SDS011;63545;51.690;5.202;2023-06-10T00:09:36;8.52;;;7.50;;
74995;SDS011;63545;51.690;5.202;2023-06-10T00:12:05;10.37;;;6.80;;
74995;SDS011;63545;51.690;5.202;2023-06-10T00:14:32;8.70;;;7.18;;
74995;SDS011;63545;51.690;5.202;2023-06-10T00:16:58;10.75;;;7.60;;
74995;SDS011;63545;51.690;5.202;2023-06-10T00:19:24;10.63;;;7.30;;
74995;SDS011;63545;51.690;5.202;2023-06-10T00:21:55;9.43;;;7.53;;
74995;SDS011;63545;51.690;5.202;2023-06-10T00:24:21;9.85;;;7.28;;
74995;SDS011;63545;51.690;5.202;2023-06-10T00:26:47;9.75;;;7.30;;
74995;SDS011;63545;51.690;5.202;2023-06-10T00:29:12;9.63;;;7.20;;
74995;SDS011;63545;51.690;5.202;2023-06-10T00:31:38;8.98;;;7.20;;
74995;SDS011;63545;51.690;5.202;2023-06-10T00:34:04;10.57;;;6.97;;
74995;SDS011;63545;51.690;5.202;2023-06-10T00:36:29;8.40;;;7.20;;
74995;SDS011;63545;51.690;5.202;2023-06-10T00:38:55;9.10;;;7.38;;
74995;SDS011;63545;51.690;5.202;2023-06-10T00:41:21;11.70;;;7.35;;
74995;SDS011;63545;51.690;5.202;2023-06-10T00:43:47;10.73;;;7.47;;
74995;SDS011;63545;51.690;5.202;2023-06-10T00:46:12;10.03;;;7.07;;
74995;SDS011;63545;51.690;5.202;2023-06-10T00:48:39;9.80;;;7.25;;
74995;SDS011;63545;51.690;5.202;2023-06-10T00:51:05;10.05;;;7.55;;
74995;SDS011;63545;51.690;5.202;2023-06-10T00:53:30;8.07;;;6.87;;
74995;SDS011;63545;51.690;5.202;2023-06-10T00:55:57;8.90;;;7.53;;
74995;SDS011;63545;51.690;5.202;2023-06-10T00:58:22;10.83;;;7.77;;
74995;SDS011;63545;51.690;5.202;2023-06-10T01:00:48;9.95;;;7.50;;
74995;SDS011;63545;51.690;5.202;2023-06-10T01:03:14;11.95;;;8.10;;
74995;SDS011;63545;51.690;5.202;2023-06-10T01:05:42;11.20;;;7.70;;
74995;SDS011;63545;51.690;5.202;2023-06-10T01:08:22;10.97;;;8.20;;
74995;SDS011;63545;51.690;5.202;2023-06-10T01:10:57;12.20;;;7.50;;
74995;SDS011;63545;51.690;5.202;2023-06-10T01:13:25;10.65;;;7.82;;
74995;SDS011;63545;51.690;5.202;2023-06-10T01:15:54;12.27;;;7.80;;
74995;SDS011;63545;51.690;5.202;2023-06-10T01:18:20;11.77;;;7.97;;
74995;SDS011;63545;51.690;5.202;2023-06-10T01:20:46;10.13;;;7.90;;
74995;SDS011;63545;51.690;5.202;2023-06-10T01:23:13;13.40;;;7.97;;
74995;SDS011;63545;51.690;5.202;2023-06-10T01:25:41;9.30;;;7.73;;
74995;SDS011;63545;51.690;5.202;2023-06-10T01:31:06;12.70;;;8.57;;
74995;SDS011;63545;51.690;5.202;2023-06-10T01:33:51;11.23;;;7.88;;
74995;SDS011;63545;51.690;5.202;2023-06-10T01:36:17;11.30;;;8.50;;
74995;SDS011;63545;51.690;5.202;2023-06-10T01:38:44;9.50;;;8.23;;
74995;SDS011;63545;51.690;5.202;2023-06-10T01:41:11;11.82;;;8.30;;
74995;SDS011;63545;51.690;5.202;2023-06-10T01:43:39;12.27;;;8.77;;
74995;SDS011;63545;51.690;5.202;2023-06-10T01:46:04;12.98;;;9.30;;
74995;SDS011;63545;51.690;5.202;2023-06-10T01:48:30;11.50;;;8.87;;
74995;SDS011;63545;51.690;5.202;2023-06-10T01:50:55;10.83;;;8.80;;
74995;SDS011;63545;51.690;5.202;2023-06-10T01:53:21;12.43;;;8.83;;
74995;SDS011;63545;51.690;5.202;2023-06-10T01:55:47;11.57;;;8.53;;
74995;SDS011;63545;51.690;5.202;2023-06-10T01:58:12;11.50;;;9.07;;
74995;SDS011;63545;51.690;5.202;2023-06-10T02:00:38;13.60;;;9.00;;
74995;SDS011;63545;51.690;5.202;2023-06-10T02:03:03;12.17;;;8.87;;
74995;SDS011;63545;51.690;5.202;2023-06-10T02:05:28;13.73;;;9.50;;
74995;SDS011;63545;51.690;5.202;2023-06-10T02:07:54;11.63;;;9.13;;
74995;SDS011;63545;51.690;5.202;2023-06-10T02:10:19;12.90;;;9.47;;
74995;SDS011;63545;51.690;5.202;2023-06-10T02:12:44;11.03;;;9.63;;
74995;SDS011;63545;51.690;5.202;2023-06-10T02:15:10;11.97;;;9.50;;
74995;SDS011;63545;51.690;5.202;2023-06-10T02:17:35;13.27;;;9.23;;
74995;SDS011;63545;51.690;5.202;2023-06-10T02:20:01;12.30;;;9.83;;
74995;SDS011;63545;51.690;5.202;2023-06-10T02:22:29;15.35;;;10.00;;
74995;SDS011;63545;51.690;5.202;2023-06-10T02:24:54;12.20;;;9.33;;
74995;SDS011;63545;51.690;5.202;2023-06-10T02:27:20;16.63;;;9.97;;
74995;SDS011;63545;51.690;5.202;2023-06-10T02:29:46;14.15;;;8.95;;
74995;SDS011;63545;51.690;5.202;2023-06-10T02:32:11;13.00;;;9.30;;
74995;SDS011;63545;51.690;5.202;2023-06-10T02:34:36;12.13;;;9.43;;
74995;SDS011;63545;51.690;5.202;2023-06-10T02:37:02;14.70;;;9.33;;
74995;SDS011;63545;51.690;5.202;2023-06-10T02:39:27;11.50;;;9.50;;
74995;SDS011;63545;51.690;5.202;2023-06-10T02:41:53;11.83;;;9.50;;
74995;SDS011;63545;51.690;5.202;2023-06-10T02:44:18;16.38;;;9.85;;
74995;SDS011;63545;51.690;5.202;2023-06-10T02:46:44;14.20;;;9.40;;
74995;SDS011;63545;51.690;5.202;2023-06-10T02:49:09;13.60;;;9.67;;
74995;SDS011;63545;51.690;5.202;2023-06-10T02:51:35;15.00;;;10.27;;
74995;SDS011;63545;51.690;5.202;2023-06-10T02:54:01;12.63;;;9.60;;
74995;SDS011;63545;51.690;5.202;2023-06-10T02:56:27;16.40;;;9.60;;
74995;SDS011;63545;51.690;5.202;2023-06-10T02:58:52;12.67;;;9.63;;
74995;SDS011;63545;51.690;5.202;2023-06-10T03:01:18;14.25;;;9.80;;
74995;SDS011;63545;51.690;5.202;2023-06-10T03:03:44;11.70;;;9.67;;
74995;SDS011;63545;51.690;5.202;2023-06-10T03:06:11;13.23;;;9.75;;
74995;SDS011;63545;51.690;5.202;2023-06-10T03:08:37;13.82;;;9.82;;
74995;SDS011;63545;51.690;5.202;2023-06-10T03:11:03;15.33;;;9.70;;
74995;SDS011;63545;51.690;5.202;2023-06-10T03:13:28;11.27;;;9.63;;
74995;SDS011;63545;51.690;5.202;2023-06-10T03:15:53;11.93;;;9.37;;
74995;SDS011;63545;51.690;5.202;2023-06-10T03:18:19;16.83;;;9.85;;
74995;SDS011;63545;51.690;5.202;2023-06-10T03:20:45;14.17;;;9.77;;
74995;SDS011;63545;51.690;5.202;2023-06-10T03:23:10;13.40;;;9.47;;
74995;SDS011;63545;51.690;5.202;2023-06-10T03:25:36;12.60;;;9.70;;
74995;SDS011;63545;51.690;5.202;2023-06-10T03:28:01;17.07;;;10.63;;
74995;SDS011;63545;51.690;5.202;2023-06-10T03:30:27;11.37;;;10.00;;
74995;SDS011;63545;51.690;5.202;2023-06-10T03:32:53;16.03;;;11.30;;
74995;SDS011;63545;51.690;5.202;2023-06-10T03:35:18;12.20;;;10.37;;
74995;SDS011;63545;51.690;5.202;2023-06-10T03:37:43;14.80;;;10.63;;
74995;SDS011;63545;51.690;5.202;2023-06-10T03:40:09;14.17;;;11.10;;
74995;SDS011;63545;51.690;5.202;2023-06-10T03:42:35;14.38;;;10.32;;
74995;SDS011;63545;51.690;5.202;2023-06-10T03:45:00;16.00;;;10.13;;
74995;SDS011;63545;51.690;5.202;2023-06-10T03:47:26;13.00;;;10.60;;
74995;SDS011;63545;51.690;5.202;2023-06-10T03:49:57;13.63;;;10.87;;
74995;SDS011;63545;51.690;5.202;2023-06-10T03:52:22;12.65;;;10.57;;
74995;SDS011;63545;51.690;5.202;2023-06-10T03:54:48;14.53;;;10.00;;
74995;SDS011;63545;51.690;5.202;2023-06-10T03:57:13;14.97;;;11.20;;
74995;SDS011;63545;51.690;5.202;2023-06-10T03:59:38;15.67;;;11.23;;
74995;SDS011;63545;51.690;5.202;2023-06-10T04:02:04;15.37;;;10.63;;
74995;SDS011;63545;51.690;5.202;2023-06-10T04:04:29;16.10;;;10.70;;
74995;SDS011;63545;51.690;5.202;2023-06-10T04:06:55;12.77;;;9.80;;
74995;SDS011;63545;51.690;5.202;2023-06-10T04:09:21;16.13;;;10.50;;
74995;SDS011;63545;51.690;5.202;2023-06-10T04:11:46;13.50;;;10.37;;
74995;SDS011;63545;51.690;5.202;2023-06-10T04:14:13;13.43;;;10.57;;
74995;SDS011;63545;51.690;5.202;2023-06-10T04:16:38;15.57;;;10.73;;
74995;SDS011;63545;51.690;5.202;2023-06-10T04:19:03;16.70;;;10.30;;
74995;SDS011;63545;51.690;5.202;2023-06-10T04:21:29;17.30;;;10.50;;
74995;SDS011;63545;51.690;5.202;2023-06-10T04:23:55;14.95;;;10.30;;
74995;SDS011;63545;51.690;5.202;2023-06-10T04:26:20;12.70;;;10.47;;
74995;SDS011;63545;51.690;5.202;2023-06-10T04:28:46;17.00;;;10.10;;
74995;SDS011;63545;51.690;5.202;2023-06-10T04:31:12;18.60;;;10.33;;
74995;SDS011;63545;51.690;5.202;2023-06-10T04:33:37;13.00;;;9.43;;
74995;SDS011;63545;51.690;5.202;2023-06-10T04:36:02;12.80;;;9.97;;
74995;SDS011;63545;51.690;5.202;2023-06-10T04:38:28;13.97;;;10.10;;
74995;SDS011;63545;51.690;5.202;2023-06-10T04:40:53;13.40;;;9.90;;
74995;SDS011;63545;51.690;5.202;2023-06-10T04:43:19;16.20;;;10.57;;
74995;SDS011;63545;51.690;5.202;2023-06-10T04:45:44;12.93;;;9.80;;
74995;SDS011;63545;51.690;5.202;2023-06-10T04:48:10;18.40;;;10.47;;
74995;SDS011;63545;51.690;5.202;2023-06-10T04:50:36;13.75;;;10.50;;
74995;SDS011;63545;51.690;5.202;2023-06-10T04:53:01;12.73;;;9.63;;
74995;SDS011;63545;51.690;5.202;2023-06-10T04:55:26;13.60;;;10.07;;
74995;SDS011;63545;51.690;5.202;2023-06-10T04:57:52;16.33;;;9.77;;
74995;SDS011;63545;51.690;5.202;2023-06-10T05:00:17;16.30;;;10.52;;
74995;SDS011;63545;51.690;5.202;2023-06-10T05:02:42;16.23;;;9.97;;
74995;SDS011;63545;51.690;5.202;2023-06-10T05:05:08;14.20;;;10.07;;
74995;SDS011;63545;51.690;5.202;2023-06-10T05:07:33;15.20;;;10.00;;
74995;SDS011;63545;51.690;5.202;2023-06-10T05:09:59;17.50;;;10.43;;
74995;SDS011;63545;51.690;5.202;2023-06-10T05:12:24;12.85;;;10.00;;
74995;SDS011;63545;51.690;5.202;2023-06-10T05:14:50;13.43;;;9.38;;
74995;SDS011;63545;51.690;5.202;2023-06-10T05:17:16;13.57;;;9.93;;
74995;SDS011;63545;51.690;5.202;2023-06-10T05:19:41;12.53;;;9.17;;
74995;SDS011;63545;51.690;5.202;2023-06-10T05:22:08;12.52;;;9.65;;
74995;SDS011;63545;51.690;5.202;2023-06-10T05:24:33;12.73;;;9.40;;
74995;SDS011;63545;51.690;5.202;2023-06-10T05:26:59;14.20;;;9.33;;
74995;SDS011;63545;51.690;5.202;2023-06-10T05:29:24;11.77;;;9.23;;
74995;SDS011;63545;51.690;5.202;2023-06-10T05:31:50;14.25;;;9.30;;
74995;SDS011;63545;51.690;5.202;2023-06-10T05:34:16;12.93;;;8.85;;
74995;SDS011;63545;51.690;5.202;2023-06-10T05:36:41;12.70;;;9.00;;
74995;SDS011;63545;51.690;5.202;2023-06-10T05:39:07;14.67;;;9.47;;
74995;SDS011;63545;51.690;5.202;2023-06-10T05:41:34;17.42;;;8.70;;
74995;SDS011;63545;51.690;5.202;2023-06-10T05:43:59;15.40;;;8.63;;
74995;SDS011;63545;51.690;5.202;2023-06-10T05:46:24;14.37;;;8.60;;
74995;SDS011;63545;51.690;5.202;2023-06-10T05:48:50;13.97;;;8.60;;
74995;SDS011;63545;51.690;5.202;2023-06-10T05:51:15;12.68;;;8.45;;
74995;SDS011;63545;51.690;5.202;2023-06-10T05:53:40;13.47;;;8.37;;
74995;SDS011;63545;51.690;5.202;2023-06-10T05:56:06;14.77;;;7.87;;
74995;SDS011;63545;51.690;5.202;2023-06-10T05:58:31;12.47;;;8.33;;
74995;SDS011;63545;51.690;5.202;2023-06-10T06:00:56;12.07;;;8.00;;
74995;SDS011;63545;51.690;5.202;2023-06-10T06:03:22;11.93;;;8.07;;
74995;SDS011;63545;51.690;5.202;2023-06-10T06:05:47;11.77;;;8.07;;
74995;SDS011;63545;51.690;5.202;2023-06-10T06:08:12;17.93;;;8.57;;
74995;SDS011;63545;51.690;5.202;2023-06-10T06:10:44;17.90;;;8.40;;
74995;SDS011;63545;51.690;5.202;2023-06-10T06:13:12;14.90;;;8.38;;
74995;SDS011;63545;51.690;5.202;2023-06-10T06:15:38;13.27;;;8.27;;
74995;SDS011;63545;51.690;5.202;2023-06-10T06:18:03;13.97;;;8.57;;
74995;SDS011;63545;51.690;5.202;2023-06-10T06:20:28;13.93;;;8.57;;
74995;SDS011;63545;51.690;5.202;2023-06-10T06:22:54;14.17;;;8.30;;
74995;SDS011;63545;51.690;5.202;2023-06-10T06:25:19;14.03;;;7.60;;
74995;SDS011;63545;51.690;5.202;2023-06-10T06:27:45;12.10;;;7.80;;
74995;SDS011;63545;51.690;5.202;2023-06-10T06:30:10;12.43;;;8.27;;
74995;SDS011;63545;51.690;5.202;2023-06-10T06:32:35;14.18;;;8.00;;
74995;SDS011;63545;51.690;5.202;2023-06-10T06:35:01;15.07;;;8.03;;
74995;SDS011;63545;51.690;5.202;2023-06-10T06:37:27;13.23;;;8.15;;
74995;SDS011;63545;51.690;5.202;2023-06-10T06:39:52;10.73;;;8.00;;
74995;SDS011;63545;51.690;5.202;2023-06-10T06:42:18;11.17;;;7.50;;
74995;SDS011;63545;51.690;5.202;2023-06-10T06:44:44;13.23;;;8.00;;
74995;SDS011;63545;51.690;5.202;2023-06-10T06:47:10;11.80;;;7.60;;
74995;SDS011;63545;51.690;5.202;2023-06-10T06:49:35;11.67;;;7.70;;
74995;SDS011;63545;51.690;5.202;2023-06-10T06:52:01;14.97;;;7.43;;
74995;SDS011;63545;51.690;5.202;2023-06-10T06:54:26;12.90;;;7.70;;
74995;SDS011;63545;51.690;5.202;2023-06-10T06:56:51;12.83;;;7.80;;
74995;SDS011;63545;51.690;5.202;2023-06-10T06:59:17;15.27;;;8.52;;
74995;SDS011;63545;51.690;5.202;2023-06-10T07:01:44;12.43;;;8.07;;
74995;SDS011;63545;51.690;5.202;2023-06-10T07:04:09;13.15;;;7.55;;
74995;SDS011;63545;51.690;5.202;2023-06-10T07:06:35;15.40;;;7.57;;
74995;SDS011;63545;51.690;5.202;2023-06-10T07:09:01;13.10;;;7.20;;
74995;SDS011;63545;51.690;5.202;2023-06-10T07:11:26;12.60;;;7.37;;
74995;SDS011;63545;51.690;5.202;2023-06-10T07:13:51;14.87;;;7.50;;
74995;SDS011;63545;51.690;5.202;2023-06-10T07:16:17;13.53;;;7.20;;
74995;SDS011;63545;51.690;5.202;2023-06-10T07:18:42;13.67;;;7.33;;
74995;SDS011;63545;51.690;5.202;2023-06-10T07:21:07;12.33;;;7.23;;
74995;SDS011;63545;51.690;5.202;2023-06-10T07:23:33;13.32;;;7.43;;
74995;SDS011;63545;51.690;5.202;2023-06-10T07:25:58;13.57;;;7.10;;
74995;SDS011;63545;51.690;5.202;2023-06-10T07:28:23;12.50;;;7.10;;
74995;SDS011;63545;51.690;5.202;2023-06-10T07:30:49;14.80;;;6.60;;
74995;SDS011;63545;51.690;5.202;2023-06-10T07:33:14;11.90;;;7.22;;
74995;SDS011;63545;51.690;5.202;2023-06-10T07:35:40;10.10;;;6.60;;
74995;SDS011;63545;51.690;5.202;2023-06-10T07:38:07;12.90;;;6.53;;
74995;SDS011;63545;51.690;5.202;2023-06-10T07:40:33;18.52;;;7.32;;
74995;SDS011;63545;51.690;5.202;2023-06-10T07:42:58;9.80;;;6.93;;
74995;SDS011;63545;51.690;5.202;2023-06-10T07:45:23;13.03;;;6.63;;
74995;SDS011;63545;51.690;5.202;2023-06-10T07:47:49;11.33;;;6.57;;
74995;SDS011;63545;51.690;5.202;2023-06-10T07:50:14;10.70;;;6.57;;
74995;SDS011;63545;51.690;5.202;2023-06-10T07:52:39;10.03;;;6.23;;
74995;SDS011;63545;51.690;5.202;2023-06-10T07:55:05;10.53;;;6.80;;
74995;SDS011;63545;51.690;5.202;2023-06-10T07:57:31;11.13;;;6.55;;
74995;SDS011;63545;51.690;5.202;2023-06-10T07:59:59;13.23;;;6.60;;
74995;SDS011;63545;51.690;5.202;2023-06-10T08:02:25;13.50;;;7.10;;
74995;SDS011;63545;51.690;5.202;2023-06-10T08:04:50;14.68;;;6.65;;
74995;SDS011;63545;51.690;5.202;2023-06-10T08:07:16;13.43;;;6.80;;
74995;SDS011;63545;51.690;5.202;2023-06-10T08:09:43;10.03;;;6.53;;
74995;SDS011;63545;51.690;5.202;2023-06-10T08:12:08;13.88;;;6.57;;
74995;SDS011;63545;51.690;5.202;2023-06-10T08:14:33;9.03;;;6.13;;
74995;SDS011;63545;51.690;5.202;2023-06-10T08:16:59;14.03;;;6.57;;
74995;SDS011;63545;51.690;5.202;2023-06-10T08:19:24;9.83;;;6.30;;
74995;SDS011;63545;51.690;5.202;2023-06-10T08:21:50;10.77;;;6.28;;
74995;SDS011;63545;51.690;5.202;2023-06-10T08:24:15;12.00;;;6.37;;
74995;SDS011;63545;51.690;5.202;2023-06-10T08:26:42;7.47;;;5.82;;
74995;SDS011;63545;51.690;5.202;2023-06-10T08:29:08;10.23;;;6.10;;
74995;SDS011;63545;51.690;5.202;2023-06-10T08:31:33;12.20;;;6.30;;
74995;SDS011;63545;51.690;5.202;2023-06-10T08:33:58;7.80;;;5.80;;
74995;SDS011;63545;51.690;5.202;2023-06-10T08:36:24;7.87;;;5.80;;
74995;SDS011;63545;51.690;5.202;2023-06-10T08:38:50;8.35;;;6.13;;
74995;SDS011;63545;51.690;5.202;2023-06-10T08:41:17;9.13;;;6.07;;
74995;SDS011;63545;51.690;5.202;2023-06-10T08:43:48;12.98;;;6.07;;
74995;SDS011;63545;51.690;5.202;2023-06-10T08:46:24;11.70;;;6.25;;
74995;SDS011;63545;51.690;5.202;2023-06-10T08:48:51;12.97;;;6.13;;
74995;SDS011;63545;51.690;5.202;2023-06-10T08:51:19;10.13;;;6.07;;
74995;SDS011;63545;51.690;5.202;2023-06-10T08:53:50;9.57;;;6.30;;
74995;SDS011;63545;51.690;5.202;2023-06-10T08:56:18;9.43;;;5.80;;
74995;SDS011;63545;51.690;5.202;2023-06-10T08:58:45;10.00;;;5.85;;
74995;SDS011;63545;51.690;5.202;2023-06-10T09:01:10;15.25;;;5.88;;
74995;SDS011;63545;51.690;5.202;2023-06-10T09:03:37;8.73;;;5.73;;
74995;SDS011;63545;51.690;5.202;2023-06-10T09:06:04;9.40;;;5.90;;
74995;SDS011;63545;51.690;5.202;2023-06-10T09:08:30;10.75;;;6.10;;
74995;SDS011;63545;51.690;5.202;2023-06-10T09:10:55;7.43;;;5.88;;
74995;SDS011;63545;51.690;5.202;2023-06-10T09:13:21;11.47;;;5.87;;
74995;SDS011;63545;51.690;5.202;2023-06-10T09:15:47;14.07;;;5.80;;
74995;SDS011;63545;51.690;5.202;2023-06-10T09:18:14;14.20;;;6.10;;
74995;SDS011;63545;51.690;5.202;2023-06-10T09:20:41;8.77;;;5.80;;
74995;SDS011;63545;51.690;5.202;2023-06-10T09:23:07;11.60;;;5.88;;
74995;SDS011;63545;51.690;5.202;2023-06-10T09:25:37;6.43;;;5.67;;
74995;SDS011;63545;51.690;5.202;2023-06-10T09:28:03;14.18;;;6.28;;
74995;SDS011;63545;51.690;5.202;2023-06-10T09:32:55;12.75;;;6.38;;
74995;SDS011;63545;51.690;5.202;2023-06-10T09:35:22;11.45;;;6.00;;
74995;SDS011;63545;51.690;5.202;2023-06-10T09:37:49;10.90;;;6.40;;
74995;SDS011;63545;51.690;5.202;2023-06-10T09:40:16;13.13;;;6.53;;
74995;SDS011;63545;51.690;5.202;2023-06-10T09:42:42;10.00;;;5.93;;
74995;SDS011;63545;51.690;5.202;2023-06-10T09:45:07;10.07;;;6.40;;
74995;SDS011;63545;51.690;5.202;2023-06-10T09:47:33;12.57;;;6.20;;
74995;SDS011;63545;51.690;5.202;2023-06-10T09:49:58;10.00;;;6.20;;
74995;SDS011;63545;51.690;5.202;2023-06-10T09:52:24;12.93;;;6.10;;
74995;SDS011;63545;51.690;5.202;2023-06-10T09:54:54;14.60;;;6.32;;
74995;SDS011;63545;51.690;5.202;2023-06-10T09:57:24;8.52;;;5.88;;
74995;SDS011;63545;51.690;5.202;2023-06-10T09:59:54;11.38;;;6.35;;
74995;SDS011;63545;51.690;5.202;2023-06-10T10:02:19;10.88;;;6.22;;
74995;SDS011;63545;51.690;5.202;2023-06-10T10:04:45;9.90;;;5.63;;
74995;SDS011;63545;51.690;5.202;2023-06-10T10:07:11;8.20;;;5.93;;
74995;SDS011;63545;51.690;5.202;2023-06-10T10:09:37;8.25;;;6.28;;
74995;SDS011;63545;51.690;5.202;2023-06-10T10:12:03;10.13;;;6.28;;
74995;SDS011;63545;51.690;5.202;2023-06-10T10:14:39;11.52;;;6.10;;
74995;SDS011;63545;51.690;5.202;2023-06-10T10:17:07;11.17;;;7.03;;
74995;SDS011;63545;51.690;5.202;2023-06-10T10:19:37;13.75;;;6.68;;
74995;SDS011;63545;51.690;5.202;2023-06-10T10:22:08;13.95;;;6.30;;
74995;SDS011;63545;51.690;5.202;2023-06-10T10:24:36;10.98;;;6.85;;
74995;SDS011;63545;51.690;5.202;2023-06-10T10:27:09;13.25;;;6.70;;
74995;SDS011;63545;51.690;5.202;2023-06-10T10:29:39;7.97;;;6.53;;
74995;SDS011;63545;51.690;5.202;2023-06-10T10:32:05;10.93;;;6.95;;
74995;SDS011;63545;51.690;5.202;2023-06-10T10:37:00;13.02;;;7.15;;
74995;SDS011;63545;51.690;5.202;2023-06-10T10:39:25;13.53;;;6.50;;
74995;SDS011;63545;51.690;5.202;2023-06-10T10:41:53;10.70;;;6.88;;
74995;SDS011;63545;51.690;5.202;2023-06-10T10:44:19;14.15;;;7.57;;
74995;SDS011;63545;51.690;5.202;2023-06-10T10:46:45;11.13;;;7.17;;
74995;SDS011;63545;51.690;5.202;2023-06-10T10:49:14;12.65;;;6.65;;
74995;SDS011;63545;51.690;5.202;2023-06-10T10:51:59;10.73;;;6.50;;
74995;SDS011;63545;51.690;5.202;2023-06-10T10:54:29;9.00;;;6.43;;
74995;SDS011;63545;51.690;5.202;2023-06-10T10:59:44;13.25;;;6.88;;
74995;SDS011;63545;51.690;5.202;2023-06-10T11:02:32;9.45;;;6.50;;
74995;SDS011;63545;51.690;5.202;2023-06-10T11:04:57;9.77;;;6.63;;
74995;SDS011;63545;51.690;5.202;2023-06-10T11:07:24;13.70;;;6.77;;
74995;SDS011;63545;51.690;5.202;2023-06-10T11:09:59;10.48;;;6.70;;
74995;SDS011;63545;51.690;5.202;2023-06-10T11:12:25;11.05;;;6.50;;
74995;SDS011;63545;51.690;5.202;2023-06-10T11:14:55;13.75;;;6.88;;
74995;SDS011;63545;51.690;5.202;2023-06-10T11:17:21;10.87;;;6.70;;
74995;SDS011;63545;51.690;5.202;2023-06-10T11:19:46;12.70;;;6.38;;
74995;SDS011;63545;51.690;5.202;2023-06-10T11:22:16;7.77;;;6.60;;
74995;SDS011;63545;51.690;5.202;2023-06-10T11:24:44;11.73;;;6.05;;
74995;SDS011;63545;51.690;5.202;2023-06-10T11:27:16;9.07;;;6.10;;
74995;SDS011;63545;51.690;5.202;2023-06-10T11:32:31;8.65;;;6.70;;
74995;SDS011;63545;51.690;5.202;2023-06-10T11:34:58;13.70;;;6.32;;
74995;SDS011;63545;51.690;5.202;2023-06-10T11:37:24;12.80;;;6.30;;
74995;SDS011;63545;51.690;5.202;2023-06-10T11:39:56;9.68;;;6.40;;
74995;SDS011;63545;51.690;5.202;2023-06-10T11:42:22;20.33;;;6.63;;
74995;SDS011;63545;51.690;5.202;2023-06-10T11:44:51;12.70;;;6.40;;
74995;SDS011;63545;51.690;5.202;2023-06-10T11:47:18;9.20;;;5.90;;
74995;SDS011;63545;51.690;5.202;2023-06-10T11:49:44;9.57;;;6.30;;
74995;SDS011;63545;51.690;5.202;2023-06-10T11:52:10;11.95;;;6.32;;
74995;SDS011;63545;51.690;5.202;2023-06-10T11:54:36;10.90;;;5.82;;
74995;SDS011;63545;51.690;5.202;2023-06-10T11:57:01;11.97;;;6.13;;
74995;SDS011;63545;51.690;5.202;2023-06-10T11:59:28;7.78;;;5.75;;
74995;SDS011;63545;51.690;5.202;2023-06-10T12:01:54;11.32;;;6.40;;
74995;SDS011;63545;51.690;5.202;2023-06-10T12:04:19;7.73;;;5.63;;
74995;SDS011;63545;51.690;5.202;2023-06-10T12:06:50;8.43;;;6.15;;
74995;SDS011;63545;51.690;5.202;2023-06-10T12:09:20;9.18;;;5.85;;
74995;SDS011;63545;51.690;5.202;2023-06-10T12:11:48;7.87;;;5.30;;
74995;SDS011;63545;51.690;5.202;2023-06-10T12:14:15;9.85;;;6.20;;
74995;SDS011;63545;51.690;5.202;2023-06-10T12:16:47;11.65;;;5.85;;
74995;SDS011;63545;51.690;5.202;2023-06-10T12:19:14;8.93;;;5.90;;
74995;SDS011;63545;51.690;5.202;2023-06-10T12:21:39;7.90;;;5.50;;
74995;SDS011;63545;51.690;5.202;2023-06-10T12:24:08;8.60;;;5.83;;
74995;SDS011;63545;51.690;5.202;2023-06-10T12:26:44;7.95;;;5.43;;
74995;SDS011;63545;51.690;5.202;2023-06-10T12:31:52;8.10;;;5.85;;
74995;SDS011;63545;51.690;5.202;2023-06-10T12:34:18;8.40;;;5.70;;
74995;SDS011;63545;51.690;5.202;2023-06-10T12:36:50;11.32;;;5.60;;
74995;SDS011;63545;51.690;5.202;2023-06-10T12:39:15;6.73;;;5.67;;
74995;SDS011;63545;51.690;5.202;2023-06-10T12:41:46;7.20;;;5.60;;
74995;SDS011;63545;51.690;5.202;2023-06-10T12:44:13;8.85;;;5.93;;
74995;SDS011;63545;51.690;5.202;2023-06-10T12:46:39;7.80;;;5.47;;
74995;SDS011;63545;51.690;5.202;2023-06-10T12:49:04;9.47;;;5.80;;
74995;SDS011;63545;51.690;5.202;2023-06-10T12:51:29;7.10;;;5.30;;
74995;SDS011;63545;51.690;5.202;2023-06-10T12:53:55;6.10;;;5.18;;
74995;SDS011;63545;51.690;5.202;2023-06-10T12:56:20;9.57;;;5.43;;
74995;SDS011;63545;51.690;5.202;2023-06-10T12:58:47;7.65;;;5.78;;
74995;SDS011;63545;51.690;5.202;2023-06-10T13:01:12;10.27;;;5.90;;
74995;SDS011;63545;51.690;5.202;2023-06-10T13:03:38;8.97;;;5.43;;
74995;SDS011;63545;51.690;5.202;2023-06-10T13:06:04;7.13;;;5.50;;
74995;SDS011;63545;51.690;5.202;2023-06-10T13:08:30;10.30;;;5.82;;
74995;SDS011;63545;51.690;5.202;2023-06-10T13:10:56;8.30;;;5.67;;
74995;SDS011;63545;51.690;5.202;2023-06-10T13:13:21;9.10;;;5.70;;
74995;SDS011;63545;51.690;5.202;2023-06-10T13:15:46;12.37;;;5.87;;
74995;SDS011;63545;51.690;5.202;2023-06-10T13:18:12;6.47;;;5.30;;
74995;SDS011;63545;51.690;5.202;2023-06-10T13:20:37;9.43;;;5.80;;
74995;SDS011;63545;51.690;5.202;2023-06-10T13:23:02;9.32;;;5.70;;
74995;SDS011;63545;51.690;5.202;2023-06-10T13:25:28;7.37;;;5.53;;
74995;SDS011;63545;51.690;5.202;2023-06-10T13:27:53;9.63;;;5.73;;
74995;SDS011;63545;51.690;5.202;2023-06-10T13:30:19;8.43;;;5.63;;
74995;SDS011;63545;51.690;5.202;2023-06-10T13:32:45;7.03;;;5.50;;
74995;SDS011;63545;51.690;5.202;2023-06-10T13:35:10;7.53;;;5.27;;
74995;SDS011;63545;51.690;5.202;2023-06-10T13:37:35;9.50;;;5.37;;
74995;SDS011;63545;51.690;5.202;2023-06-10T13:40:01;12.52;;;5.63;;
74995;SDS011;63545;51.690;5.202;2023-06-10T13:42:27;8.43;;;5.38;;
74995;SDS011;63545;51.690;5.202;2023-06-10T13:44:54;7.18;;;5.75;;
74995;SDS011;63545;51.690;5.202;2023-06-10T13:47:19;9.77;;;5.30;;
74995;SDS011;63545;51.690;5.202;2023-06-10T13:49:45;9.03;;;5.50;;
74995;SDS011;63545;51.690;5.202;2023-06-10T13:52:11;8.05;;;5.30;;
74995;SDS011;63545;51.690;5.202;2023-06-10T13:54:36;6.60;;;5.50;;
74995;SDS011;63545;51.690;5.202;2023-06-10T13:57:02;8.63;;;5.40;;
74995;SDS011;63545;51.690;5.202;2023-06-10T13:59:28;14.45;;;5.50;;
74995;SDS011;63545;51.690;5.202;2023-06-10T14:01:53;10.67;;;5.90;;
74995;SDS011;63545;51.690;5.202;2023-06-10T14:04:18;11.00;;;5.53;;
74995;SDS011;63545;51.690;5.202;2023-06-10T14:06:44;7.13;;;5.43;;
74995;SDS011;63545;51.690;5.202;2023-06-10T14:09:10;10.70;;;6.55;;
74995;SDS011;63545;51.690;5.202;2023-06-10T14:11:35;7.60;;;5.37;;
74995;SDS011;63545;51.690;5.202;2023-06-10T14:14:01;6.53;;;5.10;;
74995;SDS011;63545;51.690;5.202;2023-06-10T14:16:26;9.87;;;5.43;;
74995;SDS011;63545;51.690;5.202;2023-06-10T14:18:52;9.20;;;6.25;;
74995;SDS011;63545;51.690;5.202;2023-06-10T14:21:17;6.73;;;5.30;;
74995;SDS011;63545;51.690;5.202;2023-06-10T14:23:43;8.50;;;5.90;;
74995;SDS011;63545;51.690;5.202;2023-06-10T14:26:09;7.43;;;5.67;;
74995;SDS011;63545;51.690;5.202;2023-06-10T14:28:34;6.50;;;5.80;;
74995;SDS011;63545;51.690;5.202;2023-06-10T14:31:00;6.17;;;5.10;;
74995;SDS011;63545;51.690;5.202;2023-06-10T14:33:25;10.30;;;5.00;;
74995;SDS011;63545;51.690;5.202;2023-06-10T14:35:51;8.00;;;5.50;;
74995;SDS011;63545;51.690;5.202;2023-06-10T14:38:16;7.73;;;5.47;;
74995;SDS011;63545;51.690;5.202;2023-06-10T14:40:41;8.75;;;5.28;;
74995;SDS011;63545;51.690;5.202;2023-06-10T14:43:07;9.47;;;5.73;;
74995;SDS011;63545;51.690;5.202;2023-06-10T14:45:38;8.18;;;5.53;;
74995;SDS011;63545;51.690;5.202;2023-06-10T14:48:05;11.77;;;5.60;;